createdAt,value
2023-05-11T00:08:49.616Z,3.76
2023-05-11T00:18:52.714Z,3.84
2023-05-11T00:28:56.019Z,3.86
2023-05-11T00:38:59.062Z,3.79
2023-05-11T00:49:02.308Z,3.68
2023-05-11T00:59:05.734Z,3.50
2023-05-11T01:09:46.539Z,3.31
2023-05-11T01:19:59.207Z,3.19
2023-05-11T01:30:40.687Z,3.05
2023-05-11T01:40:45.226Z,2.82
2023-05-11T01:50:51.113Z,2.60
2023-05-11T02:00:55.952Z,2.34
2023-05-11T02:11:01.005Z,2.27
2023-05-11T02:21:05.534Z,2.20
2023-05-11T02:31:13.065Z,2.19
2023-05-11T02:41:26.133Z,2.12
2023-05-11T02:51:38.818Z,2.00
2023-05-11T03:01:43.675Z,1.92
2023-05-11T03:11:47.491Z,1.79
2023-05-11T03:21:52.712Z,1.75
2023-05-11T03:31:56.064Z,1.74
2023-05-11T03:42:01.785Z,1.84
2023-05-11T03:52:06.426Z,1.91
2023-05-11T04:02:09.655Z,2.11
2023-05-11T04:12:13.027Z,2.39
2023-05-11T04:22:18.296Z,2.72
2023-05-11T04:32:21.451Z,3.12
2023-05-11T04:42:24.576Z,3.70
2023-05-11T04:52:30.310Z,4.37
2023-05-11T05:02:33.638Z,5.04
2023-05-11T05:12:37.310Z,5.65
2023-05-11T05:22:41.865Z,6.32
2023-05-11T05:32:45.352Z,7.12
2023-05-11T05:42:48.589Z,7.91
2023-05-11T05:52:56.501Z,8.35
2023-05-11T06:03:01.897Z,9.02
2023-05-11T06:13:06.168Z,10.71
2023-05-11T06:23:09.932Z,12.90
2023-05-11T06:33:15.870Z,15.01
2023-05-11T06:43:19.811Z,16.64
2023-05-11T06:53:24.721Z,18.20
2023-05-11T07:03:28.759Z,19.56
2023-05-11T07:13:52.516Z,20.73
2023-05-11T07:23:58.480Z,21.48
2023-05-11T07:34:01.947Z,22.07
2023-05-11T07:44:05.835Z,22.48
2023-05-11T07:54:08.975Z,22.11
2023-05-11T08:04:12.118Z,22.07
2023-05-11T08:14:15.874Z,21.46
2023-05-11T08:24:18.951Z,20.27
2023-05-11T08:34:23.358Z,19.29
2023-05-11T08:44:27.421Z,18.97
2023-05-11T08:54:30.585Z,18.93
2023-05-11T09:04:35.451Z,19.02
2023-05-11T09:14:39.171Z,19.04
2023-05-11T09:24:43.264Z,18.96
2023-05-11T09:34:46.875Z,18.97
2023-05-11T09:44:53.029Z,19.30
2023-05-11T09:54:56.075Z,19.70
2023-05-11T10:05:11.702Z,19.94
2023-05-11T10:15:16.969Z,20.36
2023-05-11T10:25:23.003Z,20.49
2023-05-11T10:35:27.265Z,20.62
2023-05-11T10:45:56.758Z,20.57
2023-05-11T10:56:34.629Z,20.34
2023-05-11T11:06:41.288Z,20.00
2023-05-11T11:17:15.569Z,19.97
2023-05-11T11:27:18.760Z,20.50
2023-05-11T11:37:23.404Z,20.48
2023-05-11T11:47:27.126Z,20.77
2023-05-11T11:57:30.444Z,20.94
2023-05-11T12:07:34.308Z,20.60
2023-05-11T12:17:39.014Z,20.40
2023-05-11T12:27:58.228Z,20.45
2023-05-11T12:38:05.171Z,20.00
2023-05-11T12:48:11.025Z,20.01
2023-05-11T12:58:16.084Z,19.85
2023-05-11T13:08:20.399Z,20.18
2023-05-11T13:18:24.174Z,20.13
2023-05-11T13:28:27.820Z,20.21
2023-05-11T13:38:31.021Z,20.53
2023-05-11T13:48:34.129Z,20.71
2023-05-11T13:58:37.382Z,20.56
2023-05-11T14:08:40.653Z,20.26
2023-05-11T14:18:44.546Z,19.86
2023-05-11T14:28:50.097Z,19.85
2023-05-11T14:38:54.453Z,19.74
2023-05-11T14:48:57.782Z,19.55
2023-05-11T14:59:00.992Z,19.34
2023-05-11T15:09:04.409Z,19.11
2023-05-11T15:19:07.601Z,19.06
2023-05-11T15:29:11.163Z,19.18
2023-05-11T15:39:16.488Z,19.12
2023-05-11T15:49:19.725Z,19.10
2023-05-11T15:59:22.972Z,18.99
2023-05-11T16:09:26.164Z,18.94
2023-05-11T16:19:30.317Z,18.76
2023-05-11T16:29:33.784Z,18.50
2023-05-11T16:39:36.969Z,18.23
2023-05-11T16:49:40.074Z,17.97
2023-05-11T16:59:43.337Z,17.74
2023-05-11T17:09:46.762Z,17.50
2023-05-11T17:19:49.956Z,17.20
2023-05-11T17:29:53.244Z,16.77
2023-05-11T17:40:23.452Z,16.29
2023-05-11T17:50:26.598Z,15.77
2023-05-11T18:00:32.290Z,15.17
2023-05-11T18:10:35.871Z,14.50
2023-05-11T18:20:39.404Z,13.58
2023-05-11T18:31:07.369Z,12.82
2023-05-11T18:41:10.786Z,12.14
2023-05-11T18:51:18.991Z,11.46
2023-05-11T19:01:26.049Z,10.84
2023-05-11T19:11:36.393Z,10.18
2023-05-11T19:21:41.884Z,9.64
2023-05-11T19:31:45.070Z,9.11
2023-05-11T19:41:51.445Z,8.57
2023-05-11T19:51:55.032Z,8.17
2023-05-11T20:02:04.346Z,7.86
2023-05-11T20:12:32.623Z,7.51
2023-05-11T20:22:36.895Z,7.25
2023-05-11T20:43:13.731Z,6.76
2023-05-11T20:53:17.738Z,6.58
2023-05-11T21:03:21.084Z,6.47
2023-05-11T21:13:24.435Z,6.36
2023-05-11T21:23:29.019Z,6.26
2023-05-11T21:33:32.800Z,6.20
2023-05-11T21:44:01.701Z,6.13
2023-05-11T21:54:04.968Z,6.06
2023-05-11T22:04:09.365Z,6.00
2023-05-11T22:14:14.375Z,5.97
2023-05-11T22:24:17.637Z,5.95
2023-05-11T22:34:24.735Z,5.99
2023-05-11T22:44:28.761Z,6.00
2023-05-11T22:54:31.944Z,5.94
2023-05-11T23:04:35.110Z,5.81
2023-05-11T23:14:38.227Z,5.44
2023-05-11T23:25:06.654Z,5.15
2023-05-11T23:35:09.705Z,4.85
2023-05-11T23:45:13.570Z,4.65
2023-05-11T23:55:41.694Z,4.46
